createdAt,value
2022-11-16T00:00:59.703Z,2.30
2022-11-16T00:03:27.383Z,2.83
2022-11-16T00:05:56.737Z,2.22
2022-11-16T00:08:24.422Z,1.98
2022-11-16T00:10:52.983Z,2.55
2022-11-16T00:13:20.850Z,2.00
2022-11-16T00:15:58.906Z,1.67
2022-11-16T00:18:26.926Z,1.60
2022-11-16T00:20:54.566Z,1.98
2022-11-16T00:23:22.324Z,1.77
2022-11-16T00:25:50.309Z,1.63
2022-11-16T00:28:18.210Z,1.80
2022-11-16T00:30:45.792Z,1.77
2022-11-16T00:33:16.347Z,1.90
2022-11-16T00:35:44.123Z,2.13
2022-11-16T00:38:11.756Z,1.40
2022-11-16T00:40:39.388Z,1.45
2022-11-16T00:43:06.989Z,1.52
2022-11-16T00:45:34.590Z,1.60
2022-11-16T00:48:02.212Z,1.15
2022-11-16T00:50:31.127Z,1.75
2022-11-16T00:52:58.865Z,1.63
2022-11-16T00:55:26.444Z,1.83
2022-11-16T00:57:54.034Z,1.55
2022-11-16T01:00:21.853Z,1.65
2022-11-16T01:02:49.604Z,1.40
2022-11-16T01:05:17.299Z,1.05
2022-11-16T01:07:46.259Z,1.02
2022-11-16T01:10:15.743Z,1.55
2022-11-16T01:12:42.524Z,1.17
2022-11-16T01:15:10.598Z,1.17
2022-11-16T01:17:38.641Z,1.45
2022-11-16T01:20:07.251Z,1.10
2022-11-16T01:22:36.453Z,1.27
2022-11-16T01:25:05.960Z,1.23
2022-11-16T01:27:33.635Z,1.48
2022-11-16T01:30:01.424Z,1.25
2022-11-16T01:32:29.005Z,1.30
2022-11-16T01:34:56.602Z,0.90
2022-11-16T01:37:24.185Z,1.30
2022-11-16T01:39:52.067Z,1.73
2022-11-16T01:42:21.571Z,1.38
2022-11-16T01:45:00.622Z,1.35
2022-11-16T01:47:28.668Z,1.10
2022-11-16T01:49:59.216Z,1.70
2022-11-16T01:52:28.204Z,1.52
2022-11-16T01:54:56.072Z,1.60
2022-11-16T01:57:27.512Z,1.40
2022-11-16T01:59:56.825Z,1.30
2022-11-16T02:02:24.534Z,1.38
2022-11-16T02:04:53.322Z,2.05
2022-11-16T02:07:24.709Z,1.52
2022-11-16T02:09:59.048Z,1.50
2022-11-16T02:12:38.782Z,1.48
2022-11-16T02:15:10.627Z,1.45
2022-11-16T02:17:43.407Z,1.33
2022-11-16T02:20:27.077Z,2.00
2022-11-16T02:23:03.427Z,1.85
2022-11-16T02:25:32.404Z,1.95
2022-11-16T02:28:15.095Z,1.95
2022-11-16T02:30:45.184Z,2.00
2022-11-16T02:33:13.741Z,2.47
2022-11-16T02:35:43.400Z,2.33
2022-11-16T02:38:12.317Z,1.95
2022-11-16T02:40:41.372Z,2.10
2022-11-16T02:43:10.190Z,2.40
2022-11-16T02:45:40.033Z,2.03
2022-11-16T02:48:10.029Z,1.60
2022-11-16T02:50:38.075Z,2.05
2022-11-16T02:53:05.657Z,2.10
2022-11-16T02:55:34.620Z,3.00
2022-11-16T02:58:02.947Z,2.70
2022-11-16T03:00:32.348Z,1.83
2022-11-16T03:03:20.720Z,1.90
2022-11-16T03:05:52.222Z,2.08
2022-11-16T03:08:22.686Z,1.85
2022-11-16T03:11:09.956Z,1.70
2022-11-16T03:13:38.871Z,1.83
2022-11-16T03:16:09.116Z,2.58
2022-11-16T03:18:37.133Z,2.05
2022-11-16T03:21:10.449Z,2.10
2022-11-16T03:23:38.362Z,1.98
2022-11-16T03:26:07.853Z,2.47
2022-11-16T03:28:37.822Z,2.20
2022-11-16T03:31:07.981Z,1.85
2022-11-16T03:33:38.583Z,2.13
2022-11-16T03:36:10.461Z,2.58
2022-11-16T03:38:39.304Z,2.33
2022-11-16T03:41:08.200Z,2.40
2022-11-16T03:43:36.409Z,3.10
2022-11-16T03:46:04.854Z,2.03
2022-11-16T03:48:35.141Z,2.30
2022-11-16T03:51:03.567Z,2.60
2022-11-16T03:53:32.540Z,2.45
2022-11-16T03:56:00.436Z,2.63
2022-11-16T03:58:28.069Z,2.55
2022-11-16T04:00:55.672Z,2.55
2022-11-16T04:03:23.383Z,2.67
2022-11-16T04:06:08.816Z,2.47
2022-11-16T04:08:55.355Z,2.22
2022-11-16T04:11:40.685Z,2.55
2022-11-16T04:14:36.453Z,2.70
2022-11-16T04:17:21.750Z,2.55
2022-11-16T04:20:06.816Z,2.60
2022-11-16T04:22:53.107Z,2.50
2022-11-16T04:25:25.833Z,2.78
2022-11-16T04:28:11.187Z,2.80
2022-11-16T04:30:52.681Z,3.08
2022-11-16T04:33:37.809Z,2.83
2022-11-16T04:36:21.145Z,2.33
2022-11-16T04:38:48.800Z,3.17
2022-11-16T04:41:31.627Z,3.72
2022-11-16T04:43:59.192Z,2.42
2022-11-16T04:46:44.656Z,2.97
2022-11-16T04:49:12.254Z,3.25
2022-11-16T04:51:40.068Z,2.38
2022-11-16T04:54:07.656Z,2.50
2022-11-16T04:56:36.648Z,2.47
2022-11-16T04:59:04.301Z,2.80
2022-11-16T05:01:57.725Z,1.77
2022-11-16T05:04:25.691Z,3.45
2022-11-16T05:06:53.352Z,1.77
2022-11-16T05:09:21.037Z,2.25
2022-11-16T05:11:50.006Z,1.85
2022-11-16T05:14:17.720Z,1.92
2022-11-16T05:16:45.327Z,2.38
2022-11-16T05:19:30.695Z,2.15
2022-11-16T05:21:58.309Z,2.33
2022-11-16T05:24:34.975Z,2.25
2022-11-16T05:27:04.673Z,1.98
2022-11-16T05:29:32.333Z,1.70
2022-11-16T05:32:00.147Z,2.08
2022-11-16T05:34:28.207Z,1.70
2022-11-16T05:36:56.011Z,2.60
2022-11-16T05:39:23.652Z,2.38
2022-11-16T05:41:51.313Z,2.00
2022-11-16T05:44:21.052Z,1.67
2022-11-16T05:46:48.708Z,1.63
2022-11-16T05:49:16.606Z,2.55
2022-11-16T05:51:44.998Z,1.80
2022-11-16T05:54:13.516Z,2.47
2022-11-16T05:56:41.273Z,1.95
2022-11-16T05:59:13.718Z,2.05
2022-11-16T06:01:45.547Z,2.50
2022-11-16T06:04:13.915Z,2.53
2022-11-16T06:06:41.527Z,2.25
2022-11-16T06:09:09.739Z,1.63
2022-11-16T06:11:38.207Z,2.20
2022-11-16T06:14:06.038Z,1.70
2022-11-16T06:16:34.090Z,2.70
2022-11-16T06:19:03.139Z,2.00
2022-11-16T06:21:30.775Z,2.38
2022-11-16T06:23:58.585Z,2.22
2022-11-16T06:26:26.171Z,2.85
2022-11-16T06:28:55.016Z,2.17
2022-11-16T06:31:22.664Z,2.45
2022-11-16T06:33:50.350Z,2.25
2022-11-16T06:36:19.355Z,2.72
2022-11-16T06:38:46.990Z,2.42
2022-11-16T06:41:14.646Z,2.65
2022-11-16T06:43:42.245Z,2.97
2022-11-16T06:46:09.871Z,2.70
2022-11-16T06:48:37.678Z,2.33
2022-11-16T06:51:05.609Z,2.45
2022-11-16T06:53:34.709Z,3.17
2022-11-16T06:56:03.270Z,2.63
2022-11-16T06:58:32.028Z,2.65
2022-11-16T07:01:06.111Z,3.72
2022-11-16T07:03:33.866Z,2.80
2022-11-16T07:06:06.034Z,2.75
2022-11-16T07:08:35.345Z,3.45
2022-11-16T07:11:04.434Z,4.00
2022-11-16T07:13:32.674Z,2.83
2022-11-16T07:16:04.141Z,2.92
2022-11-16T07:18:33.620Z,2.45
2022-11-16T07:21:06.034Z,2.20
2022-11-16T07:23:35.046Z,2.30
2022-11-16T07:26:03.227Z,2.15
2022-11-16T07:28:31.136Z,3.13
2022-11-16T07:31:01.795Z,3.78
2022-11-16T07:33:29.476Z,2.45
2022-11-16T07:36:01.658Z,2.40
2022-11-16T07:38:29.312Z,3.13
2022-11-16T07:41:01.615Z,2.85
2022-11-16T07:43:29.489Z,2.75
2022-11-16T07:46:21.369Z,3.85
2022-11-16T07:48:46.236Z,3.00
2022-11-16T07:51:15.237Z,2.53
2022-11-16T07:53:43.266Z,2.78
2022-11-16T07:56:12.463Z,2.95
2022-11-16T07:58:40.695Z,2.72
2022-11-16T08:01:09.636Z,2.65
2022-11-16T08:03:37.304Z,2.42
2022-11-16T08:06:06.406Z,2.53
2022-11-16T08:08:34.267Z,2.40
2022-11-16T08:11:02.546Z,2.40
2022-11-16T08:13:34.201Z,3.00
2022-11-16T08:16:02.780Z,3.58
2022-11-16T08:18:30.482Z,2.50
2022-11-16T08:20:59.448Z,2.47
2022-11-16T08:23:27.346Z,2.22
2022-11-16T08:25:58.727Z,2.50
2022-11-16T08:28:27.255Z,2.80
2022-11-16T08:30:56.405Z,2.95
2022-11-16T08:33:24.502Z,2.17
2022-11-16T08:35:52.179Z,2.25
2022-11-16T08:38:19.843Z,2.72
2022-11-16T08:40:49.325Z,2.33
2022-11-16T08:43:16.918Z,3.22
2022-11-16T08:45:49.275Z,2.83
2022-11-16T08:48:18.330Z,1.95
2022-11-16T08:51:15.487Z,2.80
2022-11-16T08:53:33.504Z,2.85
2022-11-16T08:56:04.705Z,2.10
2022-11-16T08:58:32.524Z,2.70
2022-11-16T09:01:00.315Z,3.05
2022-11-16T09:03:29.850Z,3.17
2022-11-16T09:05:57.497Z,3.05
2022-11-16T09:08:25.089Z,2.53
2022-11-16T09:10:52.735Z,3.00
2022-11-16T09:13:20.360Z,3.13
2022-11-16T09:15:47.967Z,3.40
2022-11-16T09:18:15.767Z,2.70
2022-11-16T09:20:45.941Z,2.92
2022-11-16T09:23:13.549Z,3.50
2022-11-16T09:25:41.177Z,3.05
2022-11-16T09:28:08.964Z,3.65
2022-11-16T09:30:36.700Z,2.90
2022-11-16T09:33:04.396Z,3.13
2022-11-16T09:35:32.040Z,3.00
2022-11-16T09:38:01.070Z,2.88
2022-11-16T09:40:29.922Z,2.30
2022-11-16T09:43:01.320Z,2.60
2022-11-16T09:45:32.267Z,3.40
2022-11-16T09:48:02.860Z,2.08
2022-11-16T09:50:43.818Z,4.05
2022-11-16T09:53:19.624Z,3.20
2022-11-16T09:55:48.512Z,2.45
2022-11-16T09:58:18.324Z,3.35
2022-11-16T10:00:50.739Z,2.55
2022-11-16T10:03:18.452Z,1.83
2022-11-16T10:05:47.608Z,2.28
2022-11-16T10:08:19.334Z,2.80
2022-11-16T10:10:52.946Z,2.08
2022-11-16T10:13:28.022Z,2.08
2022-11-16T10:16:00.362Z,2.47
2022-11-16T10:18:39.515Z,2.80
2022-11-16T10:21:13.152Z,1.60
2022-11-16T10:23:50.160Z,1.95
2022-11-16T10:26:22.116Z,1.83
2022-11-16T10:29:10.222Z,3.13
2022-11-16T10:31:44.655Z,1.55
2022-11-16T10:34:17.368Z,1.77
2022-11-16T10:36:45.359Z,1.75
2022-11-16T10:39:15.215Z,1.20
2022-11-16T10:41:44.895Z,1.60
2022-11-16T10:44:15.878Z,1.92
2022-11-16T10:46:47.916Z,1.42
2022-11-16T10:49:17.813Z,1.70
2022-11-16T10:51:45.585Z,1.45
2022-11-16T10:54:14.827Z,2.33
2022-11-16T10:56:43.037Z,1.55
2022-11-16T10:59:11.199Z,1.90
2022-11-16T11:01:39.565Z,1.38
2022-11-16T11:04:18.175Z,1.58
2022-11-16T11:06:46.425Z,2.05
2022-11-16T11:09:23.509Z,1.92
2022-11-16T11:12:15.785Z,1.13
2022-11-16T11:14:43.602Z,1.83
2022-11-16T11:17:18.995Z,1.80
2022-11-16T11:22:15.324Z,1.80
2022-11-16T11:24:49.492Z,1.70
2022-11-16T11:27:23.207Z,1.67
2022-11-16T11:29:52.722Z,1.38
2022-11-16T11:32:24.122Z,2.30
2022-11-16T11:34:53.231Z,1.30
2022-11-16T11:37:22.535Z,2.35
2022-11-16T11:40:05.138Z,2.72
2022-11-16T11:42:32.937Z,1.77
2022-11-16T11:45:03.677Z,1.95
2022-11-16T11:47:56.695Z,2.00
2022-11-16T11:50:26.029Z,1.75
2022-11-16T11:53:00.364Z,1.40
2022-11-16T11:55:29.392Z,1.63
2022-11-16T11:57:57.513Z,2.00
2022-11-16T12:00:26.159Z,1.38
2022-11-16T12:03:17.729Z,2.22
2022-11-16T12:05:49.385Z,1.67
2022-11-16T12:08:23.000Z,2.25
2022-11-16T12:10:53.793Z,2.03
2022-11-16T12:13:34.490Z,1.92
2022-11-16T12:16:06.626Z,1.67
2022-11-16T12:18:39.525Z,1.77
2022-11-16T12:21:11.235Z,1.40
2022-11-16T12:24:00.055Z,2.00
2022-11-16T12:26:34.128Z,2.25
2022-11-16T12:29:06.517Z,1.73
2022-11-16T12:32:00.214Z,2.15
2022-11-16T12:34:37.517Z,2.00
2022-11-16T12:37:07.905Z,1.77
2022-11-16T12:39:36.321Z,2.28
2022-11-16T12:42:18.851Z,2.05
2022-11-16T12:45:07.798Z,1.70
2022-11-16T12:47:41.345Z,1.48
2022-11-16T12:50:19.811Z,1.70
2022-11-16T12:53:05.315Z,2.40
2022-11-16T12:55:37.965Z,1.90
2022-11-16T12:58:11.250Z,1.80
2022-11-16T13:00:46.679Z,1.30
2022-11-16T13:03:18.681Z,1.88
2022-11-16T13:05:53.830Z,1.50
2022-11-16T13:08:29.523Z,1.50
2022-11-16T13:11:06.010Z,1.75
2022-11-16T13:13:36.680Z,1.50
2022-11-16T13:16:06.274Z,1.73
2022-11-16T13:18:36.839Z,1.77
2022-11-16T13:21:06.783Z,1.80
2022-11-16T13:23:42.558Z,1.67
2022-11-16T13:26:14.237Z,1.58
2022-11-16T13:28:45.392Z,1.58
2022-11-16T13:31:15.724Z,2.17
2022-11-16T13:33:50.929Z,1.52
2022-11-16T13:36:39.315Z,1.77
2022-11-16T13:39:07.855Z,1.73
2022-11-16T13:41:36.682Z,1.88
2022-11-16T13:44:05.787Z,2.28
2022-11-16T13:46:55.374Z,1.67
2022-11-16T13:49:29.881Z,1.48
2022-11-16T13:52:07.011Z,1.20
2022-11-16T13:54:46.844Z,1.70
2022-11-16T13:57:22.247Z,1.42
2022-11-16T13:59:50.612Z,1.35
2022-11-16T14:02:29.699Z,2.10
2022-11-16T14:05:00.038Z,1.63
2022-11-16T14:07:32.338Z,1.48
2022-11-16T14:10:00.032Z,1.70
2022-11-16T14:12:50.255Z,1.92
2022-11-16T14:15:20.038Z,1.55
2022-11-16T14:17:55.120Z,2.17
2022-11-16T14:20:31.724Z,1.38
2022-11-16T14:23:05.380Z,1.60
2022-11-16T14:25:40.180Z,1.58
2022-11-16T14:28:16.897Z,2.47
2022-11-16T14:30:49.224Z,1.80
2022-11-16T14:33:26.173Z,2.08
2022-11-16T14:35:55.245Z,1.38
2022-11-16T14:38:27.600Z,2.45
2022-11-16T14:40:59.660Z,1.88
2022-11-16T14:43:29.160Z,1.83
2022-11-16T14:45:59.009Z,2.05
2022-11-16T14:48:27.167Z,1.60
2022-11-16T14:51:05.806Z,1.80
2022-11-16T14:53:34.453Z,1.88
2022-11-16T14:56:10.658Z,1.73
2022-11-16T14:58:38.944Z,1.63
2022-11-16T15:01:08.407Z,2.15
2022-11-16T15:03:38.295Z,1.88
2022-11-16T15:06:08.253Z,2.58
2022-11-16T15:08:38.392Z,2.00
2022-11-16T15:11:08.122Z,2.00
2022-11-16T15:13:36.912Z,1.90
2022-11-16T15:16:16.615Z,2.15
2022-11-16T15:18:56.983Z,1.58
2022-11-16T15:21:26.208Z,2.28
2022-11-16T15:24:23.357Z,1.40
2022-11-16T15:26:41.744Z,2.97
2022-11-16T15:29:15.257Z,2.40
2022-11-16T15:31:43.352Z,2.22
2022-11-16T15:34:13.720Z,1.95
2022-11-16T15:36:42.717Z,1.88
2022-11-16T15:39:13.086Z,2.17
2022-11-16T15:41:40.936Z,2.10
2022-11-16T15:44:15.329Z,1.67
2022-11-16T15:46:45.588Z,2.08
2022-11-16T15:49:16.734Z,2.00
2022-11-16T15:51:45.733Z,1.88
2022-11-16T15:54:14.449Z,1.63
2022-11-16T15:56:42.438Z,2.50
2022-11-16T15:59:14.307Z,2.17
2022-11-16T16:01:42.987Z,2.63
2022-11-16T16:04:15.274Z,2.78
2022-11-16T16:06:43.760Z,1.95
2022-11-16T16:09:15.231Z,2.03
2022-11-16T16:11:42.866Z,2.13
2022-11-16T16:14:11.007Z,2.05
2022-11-16T16:16:39.181Z,2.30
2022-11-16T16:19:24.069Z,2.10
2022-11-16T16:21:51.817Z,2.20
2022-11-16T16:24:38.088Z,2.33
2022-11-16T16:27:20.818Z,2.55
2022-11-16T16:29:49.217Z,2.42
2022-11-16T16:32:22.047Z,2.33
2022-11-16T16:34:49.712Z,2.75
2022-11-16T16:37:17.308Z,3.55
2022-11-16T16:39:46.289Z,4.63
2022-11-16T16:42:14.658Z,4.38
2022-11-16T16:44:44.083Z,4.20
2022-11-16T16:47:11.767Z,4.70
2022-11-16T16:49:39.473Z,4.00
2022-11-16T16:52:07.663Z,4.70
2022-11-16T16:54:35.354Z,4.15
2022-11-16T16:57:04.452Z,4.93
2022-11-16T16:59:32.089Z,5.00
2022-11-16T17:01:59.925Z,4.20
2022-11-16T17:04:27.678Z,4.30
2022-11-16T17:06:55.452Z,4.63
2022-11-16T17:09:23.107Z,4.20
2022-11-16T17:11:50.853Z,3.88
2022-11-16T17:14:21.464Z,5.07
2022-11-16T17:16:49.096Z,4.13
2022-11-16T17:19:16.741Z,4.45
2022-11-16T17:21:44.367Z,6.57
2022-11-16T17:24:12.085Z,5.43
2022-11-16T17:26:39.877Z,5.07
2022-11-16T17:29:07.713Z,4.22
2022-11-16T17:31:37.236Z,4.93
2022-11-16T17:34:07.279Z,5.22
2022-11-16T17:36:37.357Z,3.42
2022-11-16T17:39:05.214Z,5.00
2022-11-16T17:41:32.905Z,4.28
2022-11-16T17:44:00.920Z,4.18
2022-11-16T17:46:29.171Z,5.10
2022-11-16T17:48:58.418Z,3.35
2022-11-16T17:51:26.458Z,2.83
2022-11-16T17:53:54.128Z,3.58
2022-11-16T17:56:22.828Z,3.58
2022-11-16T17:58:52.235Z,3.53
2022-11-16T18:01:19.992Z,3.47
2022-11-16T18:03:47.604Z,2.80
2022-11-16T18:06:17.502Z,3.03
2022-11-16T18:08:45.428Z,2.30
2022-11-16T18:11:14.047Z,2.58
2022-11-16T18:13:41.891Z,2.95
2022-11-16T18:16:12.035Z,2.80
2022-11-16T18:18:39.675Z,3.20
2022-11-16T18:21:09.847Z,3.20
2022-11-16T18:23:39.355Z,3.35
2022-11-16T18:26:08.521Z,3.92
2022-11-16T18:28:36.218Z,3.38
2022-11-16T18:31:04.969Z,3.03
2022-11-16T18:33:32.983Z,2.97
2022-11-16T18:36:01.023Z,4.32
2022-11-16T18:38:28.646Z,3.00
2022-11-16T18:41:08.177Z,3.22
2022-11-16T18:43:36.287Z,4.38
2022-11-16T18:46:05.039Z,2.30
2022-11-16T18:48:32.695Z,3.13
2022-11-16T18:51:00.777Z,3.45
2022-11-16T18:53:28.820Z,2.80
2022-11-16T18:55:58.122Z,2.88
2022-11-16T19:01:16.612Z,2.60
2022-11-16T19:03:44.370Z,2.63
2022-11-16T19:06:12.562Z,1.98
2022-11-16T19:08:41.400Z,2.58
2022-11-16T19:11:10.101Z,3.55
2022-11-16T19:13:39.573Z,2.00
2022-11-16T19:16:07.568Z,2.33
2022-11-16T19:18:36.036Z,2.97
2022-11-16T19:21:04.408Z,3.80
2022-11-16T19:23:35.847Z,2.80
2022-11-16T19:26:04.908Z,2.03
2022-11-16T19:28:36.042Z,3.25
2022-11-16T19:31:08.866Z,2.55
2022-11-16T19:33:37.061Z,2.20
2022-11-16T19:36:08.716Z,2.83
2022-11-16T19:38:36.467Z,2.47
2022-11-16T19:41:04.315Z,2.38
2022-11-16T19:43:32.288Z,2.30
2022-11-16T19:46:02.585Z,2.20
2022-11-16T19:48:32.886Z,2.67
2022-11-16T19:51:05.327Z,3.17
2022-11-16T19:53:33.988Z,2.60
2022-11-16T19:56:01.928Z,3.72
2022-11-16T19:58:29.559Z,3.20
2022-11-16T20:01:01.263Z,2.78
2022-11-16T20:03:29.073Z,2.80
2022-11-16T20:06:06.192Z,3.83
2022-11-16T20:08:33.789Z,2.85
2022-11-16T20:11:01.376Z,3.08
2022-11-16T20:13:29.056Z,3.22
2022-11-16T20:15:56.677Z,2.88
2022-11-16T20:18:24.520Z,3.92
2022-11-16T20:20:52.141Z,3.00
2022-11-16T20:23:21.210Z,3.45
2022-11-16T20:25:48.809Z,3.13
2022-11-16T20:28:16.414Z,3.90
2022-11-16T20:30:46.439Z,3.85
2022-11-16T20:33:14.694Z,4.20
2022-11-16T20:35:42.289Z,3.53
2022-11-16T20:38:09.947Z,3.13
2022-11-16T20:40:38.917Z,3.45
2022-11-16T20:43:09.116Z,3.55
2022-11-16T20:45:36.762Z,3.20
2022-11-16T20:48:04.687Z,3.08
2022-11-16T20:50:36.071Z,2.75
2022-11-16T20:53:03.984Z,3.35
2022-11-16T20:55:31.857Z,3.17
2022-11-16T20:58:00.865Z,3.10
2022-11-16T21:00:28.476Z,2.70
2022-11-16T21:02:56.406Z,2.47
2022-11-16T21:05:24.115Z,2.75
2022-11-16T21:07:51.707Z,2.97
2022-11-16T21:10:19.518Z,3.20
2022-11-16T21:13:04.939Z,2.80
2022-11-16T21:15:33.988Z,2.00
2022-11-16T21:18:01.715Z,2.50
2022-11-16T21:20:29.478Z,2.35
2022-11-16T21:22:57.091Z,1.83
2022-11-16T21:25:24.772Z,2.15
2022-11-16T21:27:52.400Z,1.58
2022-11-16T21:30:21.009Z,1.98
2022-11-16T21:32:50.023Z,1.50
2022-11-16T21:35:17.908Z,1.17
2022-11-16T21:37:45.499Z,1.67
2022-11-16T21:40:13.591Z,1.27
2022-11-16T21:42:41.308Z,1.60
2022-11-16T21:45:09.731Z,1.50
2022-11-16T21:47:37.350Z,1.58
2022-11-16T21:52:54.591Z,1.02
2022-11-16T21:55:22.272Z,1.30
2022-11-16T21:57:49.849Z,1.55
2022-11-16T22:00:18.157Z,1.17
2022-11-16T22:02:45.799Z,0.90
2022-11-16T22:05:32.480Z,0.77
2022-11-16T22:08:04.364Z,1.08
2022-11-16T22:10:31.943Z,1.85
2022-11-16T22:12:59.628Z,1.55
2022-11-16T22:15:27.242Z,0.98
2022-11-16T22:17:54.863Z,0.70
2022-11-16T22:20:23.961Z,1.50
2022-11-16T22:22:51.649Z,1.10
2022-11-16T22:25:19.496Z,1.10
2022-11-16T22:28:18.602Z,1.02
2022-11-16T22:30:35.648Z,0.98
2022-11-16T22:33:03.260Z,1.02
2022-11-16T22:35:32.245Z,1.38
2022-11-16T22:38:00.001Z,0.95
2022-11-16T22:40:27.613Z,1.20
2022-11-16T22:42:57.247Z,1.02
2022-11-16T22:45:25.320Z,0.80
2022-11-16T22:47:54.946Z,0.73
2022-11-16T22:50:24.044Z,0.90
2022-11-16T22:52:53.060Z,1.00
2022-11-16T22:55:21.059Z,0.90
2022-11-16T22:57:48.709Z,0.93
2022-11-16T23:00:16.898Z,1.25
2022-11-16T23:02:44.598Z,0.80
2022-11-16T23:05:12.871Z,0.95
2022-11-16T23:07:41.494Z,1.08
2022-11-16T23:10:11.180Z,0.80
2022-11-16T23:12:55.957Z,0.65
2022-11-16T23:15:41.304Z,1.20
2022-11-16T23:18:08.907Z,0.90
2022-11-16T23:20:54.042Z,0.90
2022-11-16T23:23:39.593Z,0.73
2022-11-16T23:26:31.269Z,1.00
2022-11-16T23:28:59.083Z,0.77
2022-11-16T23:31:26.692Z,0.73
2022-11-16T23:33:54.318Z,0.98
2022-11-16T23:36:21.933Z,0.90
2022-11-16T23:38:49.538Z,0.77
2022-11-16T23:41:35.825Z,0.80
2022-11-16T23:44:03.652Z,0.70
2022-11-16T23:46:35.112Z,0.88
2022-11-16T23:49:05.853Z,1.20
2022-11-16T23:51:33.445Z,0.80
2022-11-16T23:54:01.059Z,0.73
2022-11-16T23:56:30.190Z,0.90
2022-11-16T23:58:58.312Z,0.77
